createdAt,value
2022-08-30T00:02:57.005Z,100.00
2022-08-30T00:05:56.218Z,100.00
2022-08-30T00:08:54.280Z,100.00
2022-08-30T00:11:52.117Z,100.00
2022-08-30T00:14:49.504Z,100.00
2022-08-30T00:17:47.036Z,100.00
2022-08-30T00:20:45.522Z,100.00
2022-08-30T00:23:42.449Z,100.00
2022-08-30T00:26:39.364Z,100.00
2022-08-30T00:29:36.192Z,100.00
2022-08-30T00:32:33.059Z,100.00
2022-08-30T00:35:30.451Z,100.00
2022-08-30T00:38:27.340Z,100.00
2022-08-30T00:41:24.254Z,100.00
2022-08-30T00:44:21.279Z,100.00
2022-08-30T00:47:19.017Z,100.00
2022-08-30T00:50:20.200Z,100.00
2022-08-30T00:53:25.759Z,100.00
2022-08-30T00:56:25.316Z,100.00
2022-08-30T00:59:24.406Z,100.00
2022-08-30T01:02:23.912Z,100.00
2022-08-30T01:05:22.322Z,100.00
2022-08-30T01:08:23.844Z,100.00
2022-08-30T01:11:23.972Z,100.00
2022-08-30T01:14:22.095Z,100.00
2022-08-30T01:17:23.241Z,100.00
2022-08-30T01:20:30.440Z,100.00
2022-08-30T01:23:29.501Z,100.00
2022-08-30T01:26:30.589Z,100.00
2022-08-30T01:29:28.296Z,100.00
2022-08-30T01:32:31.295Z,100.00
2022-08-30T01:35:32.644Z,100.00
2022-08-30T01:38:39.891Z,100.00
2022-08-30T01:41:37.048Z,100.00
2022-08-30T01:44:33.894Z,100.00
2022-08-30T01:47:30.789Z,100.00
2022-08-30T01:50:27.740Z,100.00
2022-08-30T01:53:24.630Z,100.00
2022-08-30T01:56:22.523Z,100.00
2022-08-30T01:59:19.370Z,100.00
2022-08-30T02:02:25.883Z,100.00
2022-08-30T02:05:23.161Z,100.00
2022-08-30T02:08:19.996Z,100.00
2022-08-30T02:11:18.200Z,100.00
2022-08-30T02:14:15.569Z,100.00
2022-08-30T02:17:15.109Z,100.00
2022-08-30T02:20:12.253Z,100.00
2022-08-30T02:23:09.203Z,100.00
2022-08-30T02:26:06.233Z,100.00
2022-08-30T02:29:05.805Z,100.00
2022-08-30T02:32:02.914Z,100.00
2022-08-30T02:34:59.807Z,100.00
2022-08-30T02:37:56.648Z,100.00
2022-08-30T02:40:53.576Z,100.00
2022-08-30T02:43:50.995Z,100.00
2022-08-30T02:46:48.175Z,100.00
2022-08-30T02:49:45.050Z,100.00
2022-08-30T02:52:42.274Z,100.00
2022-08-30T02:55:44.591Z,100.00
2022-08-30T02:58:43.597Z,100.00
2022-08-30T03:01:40.473Z,100.00
2022-08-30T03:04:39.266Z,100.00
2022-08-30T03:07:36.096Z,100.00
2022-08-30T03:10:32.944Z,100.00
2022-08-30T03:13:30.347Z,100.00
2022-08-30T03:16:27.230Z,100.00
2022-08-30T03:19:25.475Z,100.00
2022-08-30T03:22:22.820Z,100.00
2022-08-30T03:25:23.007Z,100.00
2022-08-30T03:28:19.841Z,100.00
2022-08-30T03:31:16.739Z,100.00
2022-08-30T03:34:13.694Z,100.00
2022-08-30T03:37:10.677Z,100.00
2022-08-30T03:40:10.443Z,100.00
2022-08-30T03:43:07.480Z,100.00
2022-08-30T03:46:05.435Z,100.00
2022-08-30T03:49:02.285Z,100.00
2022-08-30T03:51:59.275Z,100.00
2022-08-30T03:54:56.107Z,100.00
2022-08-30T03:57:52.970Z,100.00
2022-08-30T04:00:51.090Z,100.00
2022-08-30T04:03:48.018Z,100.00
2022-08-30T04:06:44.859Z,100.00
2022-08-30T04:09:41.919Z,100.00
2022-08-30T04:12:38.914Z,100.00
2022-08-30T04:15:35.855Z,100.00
2022-08-30T04:18:32.697Z,100.00
2022-08-30T04:21:29.534Z,100.00
2022-08-30T04:24:26.458Z,100.00
2022-08-30T04:27:23.336Z,100.00
2022-08-30T04:30:20.283Z,100.00
2022-08-30T04:33:17.572Z,100.00
2022-08-30T04:36:14.772Z,100.00
2022-08-30T04:39:11.703Z,100.00
2022-08-30T04:42:11.410Z,100.00
2022-08-30T04:45:14.829Z,100.00
2022-08-30T04:48:11.780Z,100.00
2022-08-30T04:51:14.067Z,100.00
2022-08-30T04:54:11.256Z,100.00
2022-08-30T04:57:08.174Z,100.00
2022-08-30T05:00:12.848Z,100.00
2022-08-30T05:03:09.976Z,100.00
2022-08-30T05:06:07.298Z,100.00
2022-08-30T05:09:04.235Z,100.00
2022-08-30T05:12:01.075Z,100.00
2022-08-30T05:14:58.472Z,100.00
2022-08-30T05:17:55.316Z,100.00
2022-08-30T05:21:24.005Z,100.00
2022-08-30T05:24:21.086Z,100.00
2022-08-30T05:27:17.919Z,100.00
2022-08-30T05:30:18.382Z,100.00
2022-08-30T05:33:15.264Z,100.00
2022-08-30T05:36:14.667Z,100.00
2022-08-30T05:39:11.762Z,100.00
2022-08-30T05:42:08.586Z,100.00
2022-08-30T05:45:07.424Z,100.00
2022-08-30T05:48:04.818Z,100.00
2022-08-30T05:51:24.166Z,100.00
2022-08-30T05:54:21.003Z,100.00
2022-08-30T05:57:17.880Z,100.00
2022-08-30T06:00:18.514Z,100.00
2022-08-30T06:03:15.418Z,100.00
2022-08-30T06:06:12.307Z,100.00
2022-08-30T06:09:12.082Z,100.00
2022-08-30T06:12:09.258Z,100.00
2022-08-30T06:15:07.171Z,100.00
2022-08-30T06:18:04.290Z,100.00
2022-08-30T06:21:01.163Z,100.00
2022-08-30T06:23:58.820Z,100.00
2022-08-30T06:26:55.792Z,100.00
2022-08-30T06:29:53.549Z,100.00
2022-08-30T06:32:50.388Z,100.00
2022-08-30T06:35:58.780Z,100.00
2022-08-30T06:38:58.621Z,100.00
2022-08-30T06:41:55.647Z,100.00
2022-08-30T06:44:55.645Z,100.00
2022-08-30T06:47:52.564Z,100.00
2022-08-30T06:50:54.875Z,100.00
2022-08-30T06:53:51.883Z,100.00
2022-08-30T06:56:58.255Z,100.00
2022-08-30T06:59:59.121Z,100.00
2022-08-30T07:02:56.392Z,100.00
2022-08-30T07:05:55.739Z,100.00
2022-08-30T07:08:56.090Z,100.00
2022-08-30T07:11:53.655Z,100.00
2022-08-30T07:14:50.487Z,100.00
2022-08-30T07:18:06.122Z,100.00
2022-08-30T07:21:15.451Z,100.00
2022-08-30T07:24:13.527Z,100.00
2022-08-30T07:27:10.736Z,100.00
2022-08-30T07:30:09.281Z,100.00
2022-08-30T07:33:07.108Z,100.00
2022-08-30T07:36:05.364Z,100.00
2022-08-30T07:39:04.389Z,100.00
2022-08-30T07:42:02.141Z,100.00
2022-08-30T07:45:00.629Z,100.00
2022-08-30T07:47:57.703Z,100.00
2022-08-30T07:50:58.260Z,100.00
2022-08-30T07:53:57.789Z,100.00
2022-08-30T07:56:56.013Z,100.00
2022-08-30T07:59:53.575Z,100.00
2022-08-30T08:02:50.576Z,100.00
2022-08-30T08:05:48.056Z,100.00
2022-08-30T08:08:48.219Z,100.00
2022-08-30T08:11:45.099Z,100.00
2022-08-30T08:14:42.059Z,100.00
2022-08-30T08:17:38.885Z,100.00
2022-08-30T08:20:35.928Z,100.00
2022-08-30T08:23:33.320Z,100.00
2022-08-30T08:26:30.231Z,100.00
2022-08-30T08:29:28.098Z,100.00
2022-08-30T08:32:24.962Z,100.00
2022-08-30T08:35:21.985Z,100.00
2022-08-30T08:38:18.974Z,100.00
2022-08-30T08:42:02.764Z,100.00
2022-08-30T08:45:13.077Z,100.00
2022-08-30T08:48:58.667Z,100.00
2022-08-30T08:52:14.504Z,100.00
2022-08-30T08:55:16.255Z,100.00
2022-08-30T08:58:25.974Z,99.90
2022-08-30T09:01:29.243Z,97.50
2022-08-30T09:04:35.252Z,100.00
2022-08-30T09:07:41.572Z,100.00
2022-08-30T09:10:50.372Z,100.00
2022-08-30T09:13:47.964Z,94.96
2022-08-30T09:17:06.675Z,92.37
2022-08-30T09:20:04.241Z,92.36
2022-08-30T09:23:32.376Z,91.71
2022-08-30T09:26:36.356Z,91.00
2022-08-30T09:29:33.195Z,92.07
2022-08-30T09:32:44.301Z,88.60
2022-08-30T09:35:46.043Z,88.21
2022-08-30T09:38:42.929Z,85.01
2022-08-30T09:41:48.239Z,96.27
2022-08-30T09:44:45.290Z,83.48
2022-08-30T09:47:44.118Z,81.99
2022-08-30T09:50:42.268Z,91.01
2022-08-30T09:54:17.244Z,81.03
2022-08-30T09:57:34.169Z,83.57
2022-08-30T10:00:42.799Z,78.08
2022-08-30T10:04:18.403Z,84.76
2022-08-30T10:07:39.476Z,80.98
2022-08-30T10:11:13.420Z,87.59
2022-08-30T10:14:34.736Z,75.16
2022-08-30T10:18:02.789Z,78.41
2022-08-30T10:21:21.577Z,83.58
2022-08-30T10:24:33.477Z,74.74
2022-08-30T10:27:52.684Z,77.79
2022-08-30T10:31:02.646Z,72.42
2022-08-30T10:34:07.789Z,90.64
2022-08-30T10:37:14.800Z,82.07
2022-08-30T10:40:41.652Z,70.90
2022-08-30T10:44:04.371Z,66.30
2022-08-30T10:47:40.176Z,77.44
2022-08-30T10:50:47.101Z,73.53
2022-08-30T10:53:50.995Z,73.38
2022-08-30T10:56:51.735Z,64.00
2022-08-30T11:00:00.727Z,58.05
2022-08-30T11:04:00.385Z,55.58
2022-08-30T11:07:17.943Z,59.10
2022-08-30T11:11:08.058Z,76.81
2022-08-30T11:14:17.566Z,62.42
2022-08-30T11:17:30.166Z,55.11
2022-08-30T11:20:52.448Z,62.98
2022-08-30T11:24:21.703Z,54.41
2022-08-30T11:27:56.385Z,61.71
2022-08-30T11:31:10.562Z,60.78
2022-08-30T11:34:09.630Z,69.10
2022-08-30T11:37:10.060Z,64.34
2022-08-30T11:40:20.866Z,77.00
2022-08-30T11:43:36.741Z,71.08
2022-08-30T11:46:36.193Z,63.08
2022-08-30T11:50:15.615Z,62.81
2022-08-30T11:53:50.375Z,61.11
2022-08-30T11:57:12.738Z,64.46
2022-08-30T12:00:27.069Z,61.25
2022-08-30T12:03:32.881Z,61.17
2022-08-30T12:07:00.250Z,58.01
2022-08-30T12:10:02.389Z,66.37
2022-08-30T12:12:59.344Z,59.78
2022-08-30T12:16:03.687Z,59.21
2022-08-30T12:19:18.189Z,65.98
2022-08-30T12:22:18.165Z,60.67
2022-08-30T12:25:35.030Z,61.52
2022-08-30T12:28:32.004Z,62.08
2022-08-30T12:31:29.908Z,74.02
2022-08-30T12:34:40.452Z,59.40
2022-08-30T12:37:42.377Z,61.39
2022-08-30T12:40:55.222Z,77.51
2022-08-30T12:43:52.575Z,58.39
2022-08-30T12:46:59.137Z,59.07
2022-08-30T12:49:58.782Z,72.53
2022-08-30T12:53:03.467Z,63.94
2022-08-30T12:56:08.679Z,56.01
2022-08-30T12:59:05.672Z,53.88
2022-08-30T13:02:20.314Z,51.41
2022-08-30T13:05:48.176Z,52.36
2022-08-30T13:08:45.726Z,51.69
2022-08-30T13:11:49.300Z,52.57
2022-08-30T13:14:46.573Z,47.11
2022-08-30T13:17:43.778Z,50.91
2022-08-30T13:20:40.621Z,52.25
2022-08-30T13:23:37.746Z,54.21
2022-08-30T13:26:38.105Z,54.45
2022-08-30T13:29:37.185Z,54.39
2022-08-30T13:32:38.966Z,54.96
2022-08-30T13:35:36.043Z,57.21
2022-08-30T13:38:33.105Z,58.30
2022-08-30T13:41:33.836Z,63.82
2022-08-30T13:44:31.402Z,63.10
2022-08-30T13:47:33.247Z,68.50
2022-08-30T13:50:31.903Z,57.71
2022-08-30T13:56:45.778Z,57.88
2022-08-30T13:59:42.977Z,58.23
2022-08-30T14:02:55.167Z,57.72
2022-08-30T14:06:15.858Z,51.08
2022-08-30T14:09:12.225Z,55.69
2022-08-30T14:12:09.727Z,57.95
2022-08-30T14:15:07.995Z,58.22
2022-08-30T14:18:07.206Z,68.12
2022-08-30T14:21:04.018Z,62.50
2022-08-30T14:24:04.782Z,60.83
2022-08-30T14:27:02.768Z,67.36
2022-08-30T14:29:59.671Z,58.54
2022-08-30T14:32:56.523Z,56.90
2022-08-30T14:35:53.348Z,59.74
2022-08-30T14:38:50.507Z,65.46
2022-08-30T14:41:51.748Z,63.65
2022-08-30T14:44:56.285Z,61.85
2022-08-30T14:47:53.924Z,63.94
2022-08-30T14:50:50.936Z,55.85
2022-08-30T14:53:50.718Z,56.98
2022-08-30T14:56:47.874Z,61.76
2022-08-30T14:59:45.120Z,55.56
2022-08-30T15:02:43.845Z,56.54
2022-08-30T15:05:40.915Z,57.05
2022-08-30T15:08:38.524Z,62.70
2022-08-30T15:11:37.770Z,67.79
2022-08-30T15:14:36.238Z,63.84
2022-08-30T15:17:33.059Z,62.89
2022-08-30T15:20:30.579Z,62.25
2022-08-30T15:23:27.406Z,65.74
2022-08-30T15:26:25.044Z,69.42
2022-08-30T15:29:24.026Z,69.08
2022-08-30T15:32:20.876Z,70.63
2022-08-30T15:35:17.756Z,73.06
2022-08-30T15:38:14.945Z,73.09
2022-08-30T15:41:13.714Z,71.74
2022-08-30T15:44:11.605Z,73.07
2022-08-30T15:47:08.861Z,71.82
2022-08-30T15:50:07.433Z,69.87
2022-08-30T15:53:07.358Z,68.04
2022-08-30T15:56:04.907Z,70.12
2022-08-30T15:59:01.828Z,70.30
2022-08-30T16:01:59.557Z,72.39
2022-08-30T16:04:56.516Z,76.96
2022-08-30T16:07:53.384Z,76.21
2022-08-30T16:10:52.036Z,75.48
2022-08-30T16:13:54.962Z,76.39
2022-08-30T16:16:51.953Z,79.55
2022-08-30T16:19:48.793Z,82.93
2022-08-30T16:22:46.081Z,79.04
2022-08-30T16:25:43.996Z,79.18
2022-08-30T16:28:42.073Z,79.84
2022-08-30T16:31:44.175Z,80.23
2022-08-30T16:34:41.303Z,78.01
2022-08-30T16:37:38.334Z,79.58
2022-08-30T16:40:37.313Z,79.24
2022-08-30T16:43:34.723Z,80.00
2022-08-30T16:46:33.283Z,80.94
2022-08-30T16:49:30.361Z,80.95
2022-08-30T16:52:27.331Z,80.50
2022-08-30T16:55:24.204Z,80.31
2022-08-30T16:58:22.404Z,83.02
2022-08-30T17:01:22.950Z,83.64
2022-08-30T17:04:21.104Z,84.61
2022-08-30T17:07:22.333Z,85.14
2022-08-30T17:10:23.164Z,88.46
2022-08-30T17:13:23.196Z,88.73
2022-08-30T17:16:27.572Z,85.99
2022-08-30T17:19:26.780Z,89.57
2022-08-30T17:22:25.453Z,90.52
2022-08-30T17:25:24.360Z,89.88
2022-08-30T17:28:23.256Z,90.30
2022-08-30T17:31:20.150Z,87.16
2022-08-30T17:34:17.376Z,90.42
2022-08-30T17:37:14.320Z,91.28
2022-08-30T17:40:14.579Z,90.56
2022-08-30T17:43:11.654Z,90.47
2022-08-30T17:46:13.307Z,93.39
2022-08-30T17:49:11.797Z,92.90
2022-08-30T17:52:11.571Z,94.86
2022-08-30T17:55:10.259Z,93.96
2022-08-30T17:58:07.087Z,98.03
2022-08-30T18:01:13.522Z,98.44
2022-08-30T18:04:13.327Z,99.30
2022-08-30T18:07:15.966Z,100.00
2022-08-30T18:10:13.410Z,100.00
2022-08-30T18:13:10.303Z,100.00
2022-08-30T18:16:07.449Z,100.00
2022-08-30T18:19:06.352Z,100.00
2022-08-30T18:22:07.896Z,100.00
2022-08-30T18:25:06.470Z,100.00
2022-08-30T18:28:05.278Z,100.00
2022-08-30T18:31:02.862Z,100.00
2022-08-30T18:34:00.418Z,100.00
2022-08-30T18:36:57.593Z,100.00
2022-08-30T18:39:54.526Z,100.00
2022-08-30T18:42:51.377Z,100.00
2022-08-30T18:45:50.772Z,100.00
2022-08-30T18:48:49.077Z,100.00
2022-08-30T18:51:45.948Z,100.00
2022-08-30T18:54:52.719Z,100.00
2022-08-30T18:57:49.954Z,100.00
2022-08-30T19:00:48.162Z,100.00
2022-08-30T19:03:46.788Z,100.00
2022-08-30T19:06:44.365Z,100.00
2022-08-30T19:09:41.800Z,100.00
2022-08-30T19:12:40.974Z,100.00
2022-08-30T19:15:38.749Z,100.00
2022-08-30T19:18:37.031Z,100.00
2022-08-30T19:21:33.930Z,100.00
2022-08-30T19:24:31.031Z,100.00
2022-08-30T19:27:37.844Z,100.00
2022-08-30T19:30:36.983Z,100.00
2022-08-30T19:33:34.349Z,100.00
2022-08-30T19:36:31.217Z,100.00
2022-08-30T19:39:28.092Z,100.00
2022-08-30T19:42:25.080Z,100.00
2022-08-30T19:45:22.751Z,100.00
2022-08-30T19:48:22.231Z,100.00
2022-08-30T19:51:19.334Z,100.00
2022-08-30T19:54:18.722Z,100.00
2022-08-30T19:57:16.692Z,100.00
2022-08-30T20:00:16.795Z,100.00
2022-08-30T20:03:13.872Z,100.00
2022-08-30T20:06:13.639Z,100.00
2022-08-30T20:09:10.768Z,100.00
2022-08-30T20:12:07.881Z,100.00
2022-08-30T20:15:10.363Z,100.00
2022-08-30T20:18:13.449Z,100.00
2022-08-30T20:21:14.474Z,100.00
2022-08-30T20:24:11.847Z,100.00
2022-08-30T20:27:08.689Z,100.00
2022-08-30T20:30:08.695Z,100.00
2022-08-30T20:33:08.957Z,100.00
2022-08-30T20:36:09.718Z,100.00
2022-08-30T20:39:09.734Z,100.00
2022-08-30T20:42:06.843Z,100.00
2022-08-30T20:45:06.049Z,100.00
2022-08-30T20:48:03.737Z,100.00
2022-08-30T20:51:03.878Z,100.00
2022-08-30T20:54:01.483Z,100.00
2022-08-30T20:56:58.338Z,100.00
2022-08-30T20:59:55.206Z,100.00
2022-08-30T21:02:52.537Z,100.00
2022-08-30T21:05:50.848Z,100.00
2022-08-30T21:08:47.977Z,100.00
2022-08-30T21:11:45.291Z,100.00
2022-08-30T21:14:42.128Z,100.00
2022-08-30T21:17:39.398Z,100.00
2022-08-30T21:20:38.715Z,100.00
2022-08-30T21:23:35.747Z,100.00
2022-08-30T21:26:32.827Z,100.00
2022-08-30T21:29:31.095Z,100.00
2022-08-30T21:32:27.947Z,100.00
2022-08-30T21:35:43.115Z,100.00
2022-08-30T21:38:39.985Z,100.00
2022-08-30T21:41:38.842Z,100.00
2022-08-30T21:44:35.696Z,100.00
2022-08-30T21:47:33.251Z,100.00
2022-08-30T21:50:30.083Z,100.00
2022-08-30T21:53:26.903Z,100.00
2022-08-30T21:56:23.955Z,100.00
2022-08-30T21:59:22.260Z,100.00
2022-08-30T22:02:19.646Z,100.00
2022-08-30T22:05:18.411Z,100.00
2022-08-30T22:08:15.237Z,100.00
2022-08-30T22:11:18.667Z,100.00
2022-08-30T22:14:17.092Z,100.00
2022-08-30T22:17:14.317Z,100.00
2022-08-30T22:20:11.964Z,100.00
2022-08-30T22:23:15.843Z,100.00
2022-08-30T22:26:19.432Z,100.00
2022-08-30T22:29:16.379Z,100.00
2022-08-30T22:32:13.375Z,100.00
2022-08-30T22:35:10.899Z,100.00
2022-08-30T22:38:08.262Z,100.00
2022-08-30T22:41:11.604Z,100.00
2022-08-30T22:44:08.503Z,100.00
2022-08-30T22:47:05.537Z,100.00
2022-08-30T22:50:02.439Z,100.00
2022-08-30T22:52:59.550Z,100.00
2022-08-30T22:55:56.792Z,100.00
2022-08-30T22:58:55.285Z,100.00
2022-08-30T23:01:52.211Z,100.00
2022-08-30T23:04:49.194Z,100.00
2022-08-30T23:07:46.210Z,100.00
2022-08-30T23:10:44.358Z,100.00
2022-08-30T23:13:43.495Z,100.00
2022-08-30T23:16:40.387Z,100.00
2022-08-30T23:19:37.419Z,100.00
2022-08-30T23:22:34.429Z,100.00
2022-08-30T23:25:52.288Z,100.00
2022-08-30T23:29:07.476Z,100.00
2022-08-30T23:32:23.592Z,100.00
2022-08-30T23:35:39.277Z,100.00
2022-08-30T23:38:55.589Z,100.00
2022-08-30T23:42:11.251Z,100.00
2022-08-30T23:45:27.255Z,100.00
2022-08-30T23:48:50.872Z,100.00
2022-08-30T23:52:07.849Z,100.00
2022-08-30T23:55:25.222Z,100.00
2022-08-30T23:58:40.568Z,100.00
